1M4

Posey Field Airport

Haleyville, Alabama, USA
METAR K1M4 181256Z AUTO 00000KT 1/4SM FG OVC002 09/09 A3011 RMK AO2 SLPNO T00940089
Observed Flight Rules
Jan-18 @ 12:56 UTC (51 minutes ago) Instrument Flight Rules
Visibility Clouds Conditions
1/4 miles
  • Overcast at 200' AGL
  • Fog
Temperatures Readings
Current 9°C / 48°F
Dewpoint 9°C / 48°F
Humidity 100%
Altimeter 30.11" Hg
Pressure 1019.62 hPa
Elevation 284
METAR K1M4 181256Z AUTO 00000KT 1/4SM FG OVC002 09/09 A3011 RMK AO2 SLPNO T00940089
Observed Flight Rules
Jan-18 @ 12:56 UTC
(51 minutes ago)
LIFR
Clouds
  • Overcast at 200' AGL
Conditions
  • Fog
Temperature Dewpoint
9°C / 48°F 9°C / 48°F
Humidity Altimeter Pressure
100% 30.11" Hg 1019.62 hPa